createdAt,value
2023-02-23T00:00:14.983Z,70.91
2023-02-23T00:01:18.340Z,71.00
2023-02-23T00:02:20.205Z,70.59
2023-02-23T00:03:21.887Z,70.58
2023-02-23T00:04:24.286Z,70.82
2023-02-23T00:05:28.599Z,70.62
2023-02-23T00:06:31.333Z,70.74
2023-02-23T00:07:33.003Z,70.81
2023-02-23T00:08:36.478Z,71.04
2023-02-23T00:09:38.133Z,70.73
2023-02-23T00:10:39.765Z,71.25
2023-02-23T00:11:41.344Z,71.17
2023-02-23T00:12:44.634Z,71.17
2023-02-23T00:13:47.923Z,71.12
2023-02-23T00:14:49.587Z,71.19
2023-02-23T00:15:51.334Z,70.76
2023-02-23T00:16:53.779Z,70.82
2023-02-23T00:17:56.104Z,70.80
2023-02-23T00:19:00.466Z,71.24
2023-02-23T00:20:11.545Z,70.84
2023-02-23T00:21:15.348Z,71.05
2023-02-23T00:22:17.212Z,71.03
2023-02-23T00:23:18.831Z,70.91
2023-02-23T00:24:20.926Z,71.05
2023-02-23T00:25:22.781Z,70.80
2023-02-23T00:26:26.316Z,70.75
2023-02-23T00:27:27.951Z,70.56
2023-02-23T00:28:30.481Z,70.96
2023-02-23T00:29:38.646Z,70.74
2023-02-23T00:30:40.321Z,71.02
2023-02-23T00:31:44.395Z,71.31
2023-02-23T00:32:46.716Z,70.94
2023-02-23T00:33:52.872Z,71.00
2023-02-23T00:34:54.749Z,70.70
2023-02-23T00:35:56.338Z,70.67
2023-02-23T00:36:57.944Z,70.92
2023-02-23T00:37:59.594Z,70.86
2023-02-23T00:39:11.327Z,70.90
2023-02-23T00:40:16.397Z,70.77
2023-02-23T00:41:20.587Z,70.85
2023-02-23T00:42:23.361Z,70.70
2023-02-23T00:43:25.284Z,70.48
2023-02-23T00:44:26.871Z,70.74
2023-02-23T00:45:28.648Z,70.67
2023-02-23T00:46:30.405Z,70.57
2023-02-23T00:47:31.998Z,70.83
2023-02-23T00:48:34.423Z,70.84
2023-02-23T00:49:36.063Z,70.52
2023-02-23T00:50:39.171Z,70.60
2023-02-23T00:51:40.775Z,70.42
2023-02-23T00:52:43.563Z,70.30
2023-02-23T00:53:45.423Z,70.32
2023-02-23T00:54:47.042Z,70.27
2023-02-23T00:55:48.719Z,70.54
2023-02-23T00:56:50.829Z,69.83
2023-02-23T00:57:52.423Z,69.83
2023-02-23T00:58:54.430Z,70.19
2023-02-23T00:59:56.116Z,69.99
2023-02-23T01:00:59.378Z,70.19
2023-02-23T01:02:01.026Z,70.21
2023-02-23T01:03:02.636Z,70.37
2023-02-23T01:04:04.756Z,69.52
2023-02-23T01:05:06.547Z,69.96
2023-02-23T01:06:09.919Z,69.79
2023-02-23T01:07:13.067Z,69.87
2023-02-23T01:08:15.538Z,69.84
2023-02-23T01:09:27.925Z,70.11
2023-02-23T01:10:30.018Z,69.59
2023-02-23T01:11:31.710Z,69.39
2023-02-23T01:12:33.297Z,69.51
2023-02-23T01:13:35.492Z,69.42
2023-02-23T01:14:38.048Z,69.43
2023-02-23T01:15:43.574Z,69.53
2023-02-23T01:16:45.233Z,69.65
2023-02-23T01:17:46.991Z,69.28
2023-02-23T01:18:48.992Z,69.22
2023-02-23T01:19:50.646Z,69.18
2023-02-23T01:20:52.350Z,68.94
2023-02-23T01:21:54.194Z,69.30
2023-02-23T01:22:55.794Z,69.33
2023-02-23T01:23:57.811Z,69.40
2023-02-23T01:24:59.401Z,69.28
2023-02-23T01:26:01.015Z,69.45
2023-02-23T01:27:02.670Z,69.68
2023-02-23T01:28:04.339Z,69.56
2023-02-23T01:29:16.405Z,69.42
2023-02-23T01:30:18.039Z,69.52
2023-02-23T01:31:20.616Z,69.80
2023-02-23T01:32:22.533Z,69.45
2023-02-23T01:33:24.175Z,69.47
2023-02-23T01:34:25.786Z,69.61
2023-02-23T01:35:27.410Z,69.28
2023-02-23T01:36:29.286Z,69.62
2023-02-23T01:37:35.462Z,69.38
2023-02-23T01:38:37.228Z,69.23
2023-02-23T01:39:38.794Z,69.15
2023-02-23T01:40:43.065Z,69.12
2023-02-23T01:41:44.907Z,69.21
2023-02-23T01:42:46.655Z,69.05
2023-02-23T01:43:59.050Z,69.15
2023-02-23T01:45:17.838Z,69.17
2023-02-23T01:46:19.487Z,69.21
2023-02-23T01:47:21.200Z,69.49
2023-02-23T01:48:27.700Z,69.34
2023-02-23T01:49:30.027Z,69.28
2023-02-23T01:50:36.935Z,69.14
2023-02-23T01:52:02.326Z,69.14
2023-02-23T01:53:03.971Z,69.08
2023-02-23T01:54:12.084Z,69.20
2023-02-23T01:55:13.751Z,69.33
2023-02-23T01:56:18.525Z,69.16
2023-02-23T01:57:21.746Z,69.41
2023-02-23T01:58:23.815Z,69.23
2023-02-23T01:59:36.533Z,69.18
2023-02-23T02:00:38.187Z,69.26
2023-02-23T02:01:42.132Z,69.35
2023-02-23T02:02:43.797Z,69.47
2023-02-23T02:03:56.408Z,69.36
2023-02-23T02:04:58.062Z,69.44
2023-02-23T02:06:01.864Z,69.39
2023-02-23T02:07:03.854Z,69.33
2023-02-23T02:08:06.562Z,69.25
2023-02-23T02:09:10.317Z,69.04
2023-02-23T02:10:11.916Z,69.31
2023-02-23T02:11:30.760Z,69.50
2023-02-23T02:12:32.399Z,69.73
2023-02-23T02:13:36.658Z,69.38
2023-02-23T02:14:38.717Z,69.17
2023-02-23T02:15:58.908Z,69.34
2023-02-23T02:17:03.593Z,69.37
2023-02-23T02:18:41.687Z,69.45
2023-02-23T02:20:12.693Z,69.15
2023-02-23T02:21:22.854Z,69.41
2023-02-23T02:22:55.196Z,69.14
2023-02-23T02:24:22.854Z,69.04
2023-02-23T02:25:38.462Z,68.90
2023-02-23T02:26:43.600Z,69.12
2023-02-23T02:27:53.834Z,68.99
2023-02-23T02:29:10.766Z,68.91
2023-02-23T02:30:32.143Z,68.95
2023-02-23T02:31:49.695Z,68.68
2023-02-23T02:33:03.675Z,68.83
2023-02-23T02:34:11.873Z,68.96
2023-02-23T02:35:19.021Z,69.24
2023-02-23T02:36:57.954Z,69.27
2023-02-23T02:38:34.469Z,69.18
2023-02-23T02:39:53.704Z,69.29
2023-02-23T02:41:07.698Z,69.25
2023-02-23T02:42:21.802Z,68.95
2023-02-23T02:43:31.200Z,69.01
2023-02-23T02:44:42.163Z,69.15
2023-02-23T02:45:46.082Z,69.10
2023-02-23T02:46:49.633Z,69.10
2023-02-23T02:48:03.473Z,69.28
2023-02-23T02:49:15.312Z,69.23
2023-02-23T02:50:24.962Z,69.10
2023-02-23T02:51:49.279Z,69.17
2023-02-23T02:52:59.529Z,69.25
2023-02-23T02:54:07.489Z,68.95
2023-02-23T02:55:17.670Z,69.21
2023-02-23T02:56:20.360Z,69.38
2023-02-23T02:57:24.848Z,69.21
2023-02-23T02:58:27.503Z,69.34
2023-02-23T02:59:47.497Z,69.17
2023-02-23T03:01:08.256Z,69.14
2023-02-23T03:02:36.261Z,69.26
2023-02-23T03:03:57.340Z,69.21
2023-02-23T03:05:17.413Z,69.48
2023-02-23T03:06:39.162Z,69.07
2023-02-23T03:08:15.349Z,69.59
2023-02-23T03:10:05.484Z,69.64
2023-02-23T03:11:29.072Z,69.25
2023-02-23T03:13:20.207Z,69.42
2023-02-23T03:14:52.921Z,69.52
2023-02-23T03:16:13.185Z,69.06
2023-02-23T03:17:51.861Z,69.32
2023-02-23T03:19:30.250Z,69.59
2023-02-23T03:20:53.434Z,69.48
2023-02-23T03:22:20.472Z,69.42
2023-02-23T03:23:51.237Z,69.25
2023-02-23T03:25:19.296Z,69.17
2023-02-23T03:26:48.331Z,69.41
2023-02-23T03:28:29.145Z,69.25
2023-02-23T03:29:55.157Z,69.19
2023-02-23T03:31:33.696Z,69.05
2023-02-23T03:33:06.083Z,69.30
2023-02-23T03:34:38.386Z,68.97
2023-02-23T03:36:14.168Z,68.92
2023-02-23T03:37:56.824Z,69.13
2023-02-23T03:39:25.937Z,69.26
2023-02-23T03:40:48.417Z,69.11
2023-02-23T03:42:08.543Z,69.04
2023-02-23T03:43:31.659Z,69.31
2023-02-23T03:44:54.484Z,68.87
2023-02-23T03:46:14.765Z,68.87
2023-02-23T03:47:34.658Z,69.17
2023-02-23T03:48:55.055Z,69.24
2023-02-23T03:50:15.208Z,69.14
2023-02-23T03:51:35.266Z,69.00
2023-02-23T03:53:00.384Z,68.96
2023-02-23T03:54:31.334Z,69.12
2023-02-23T03:55:54.688Z,69.23
2023-02-23T03:57:15.635Z,69.00
2023-02-23T03:58:38.823Z,68.98
2023-02-23T04:00:06.460Z,69.10
2023-02-23T04:01:26.447Z,69.03
2023-02-23T04:02:46.280Z,69.00
2023-02-23T04:04:06.374Z,69.01
2023-02-23T04:05:29.440Z,69.29
2023-02-23T04:06:51.051Z,69.19
2023-02-23T04:08:11.043Z,69.15
2023-02-23T04:09:31.405Z,69.40
2023-02-23T04:10:51.522Z,69.37
2023-02-23T04:12:19.744Z,69.39
2023-02-23T04:13:22.605Z,69.28
2023-02-23T04:14:28.434Z,69.55
2023-02-23T04:15:34.114Z,69.19
2023-02-23T04:16:35.705Z,69.45
2023-02-23T04:17:37.372Z,69.56
2023-02-23T04:18:39.382Z,69.59
2023-02-23T04:19:52.165Z,69.11
2023-02-23T04:20:54.818Z,69.31
2023-02-23T04:21:56.740Z,69.33
2023-02-23T04:22:58.428Z,68.99
2023-02-23T04:24:00.225Z,69.17
2023-02-23T04:25:01.852Z,69.01
2023-02-23T04:26:05.437Z,68.89
2023-02-23T04:27:07.148Z,68.85
2023-02-23T04:28:08.777Z,68.94
2023-02-23T04:29:14.234Z,68.94
2023-02-23T04:30:16.064Z,69.15
2023-02-23T04:31:19.070Z,69.27
2023-02-23T04:32:21.080Z,69.41
2023-02-23T04:33:24.109Z,69.36
2023-02-23T04:34:25.705Z,69.21
2023-02-23T04:35:28.805Z,69.38
2023-02-23T04:36:30.839Z,69.24
2023-02-23T04:37:32.417Z,69.24
2023-02-23T04:38:34.019Z,68.99
2023-02-23T04:39:35.714Z,69.04
2023-02-23T04:40:37.376Z,69.06
2023-02-23T04:41:38.965Z,69.09
2023-02-23T04:42:40.712Z,68.99
2023-02-23T04:43:42.372Z,69.03
2023-02-23T04:44:44.587Z,69.14
2023-02-23T04:45:46.315Z,69.43
2023-02-23T04:46:47.925Z,69.34
2023-02-23T04:47:49.670Z,69.13
2023-02-23T04:48:51.304Z,69.18
2023-02-23T04:49:53.026Z,68.74
2023-02-23T04:50:54.868Z,69.15
2023-02-23T04:51:56.446Z,69.56
2023-02-23T04:52:58.122Z,69.28
2023-02-23T04:54:00.138Z,69.07
2023-02-23T04:55:01.822Z,69.45
2023-02-23T04:56:04.226Z,69.64
2023-02-23T04:57:06.065Z,69.59
2023-02-23T04:58:13.671Z,69.68
2023-02-23T04:59:15.328Z,69.42
2023-02-23T05:00:18.119Z,69.61
2023-02-23T05:01:22.320Z,69.61
2023-02-23T05:02:24.907Z,69.36
2023-02-23T05:03:26.929Z,69.51
2023-02-23T05:04:28.790Z,69.59
2023-02-23T05:05:30.599Z,69.94
2023-02-23T05:06:32.777Z,69.84
2023-02-23T05:07:34.500Z,69.87
2023-02-23T05:08:36.305Z,69.71
2023-02-23T05:09:37.899Z,69.65
2023-02-23T05:10:40.417Z,69.62
2023-02-23T05:11:42.167Z,69.69
2023-02-23T05:12:43.871Z,69.83
2023-02-23T05:13:45.454Z,69.74
2023-02-23T05:14:47.067Z,70.19
2023-02-23T05:15:48.767Z,69.94
2023-02-23T05:16:50.383Z,69.97
2023-02-23T05:17:52.039Z,69.64
2023-02-23T05:18:53.790Z,69.67
2023-02-23T05:19:56.371Z,69.86
2023-02-23T05:21:06.126Z,69.69
2023-02-23T05:22:12.567Z,69.86
2023-02-23T05:23:14.494Z,69.67
2023-02-23T05:24:17.430Z,69.65
2023-02-23T05:25:19.123Z,69.64
2023-02-23T05:26:20.899Z,69.58
2023-02-23T05:27:22.501Z,69.78
2023-02-23T05:28:24.070Z,69.80
2023-02-23T05:29:25.681Z,69.89
2023-02-23T05:30:27.366Z,70.02
2023-02-23T05:31:29.320Z,69.93
2023-02-23T05:32:31.038Z,69.87
2023-02-23T05:33:32.972Z,69.70
2023-02-23T05:34:35.181Z,69.88
2023-02-23T05:35:40.578Z,69.83
2023-02-23T05:36:42.473Z,69.61
2023-02-23T05:37:44.724Z,69.70
2023-02-23T05:38:46.669Z,69.68
2023-02-23T05:39:48.307Z,69.50
2023-02-23T05:40:49.921Z,69.50
2023-02-23T05:41:52.050Z,69.32
2023-02-23T05:42:58.921Z,69.20
2023-02-23T05:44:01.192Z,69.47
2023-02-23T05:45:04.995Z,69.46
2023-02-23T05:46:11.141Z,69.28
2023-02-23T05:47:12.828Z,69.64
2023-02-23T05:48:14.560Z,69.82
2023-02-23T05:49:16.250Z,69.68
2023-02-23T05:50:17.915Z,69.77
2023-02-23T05:51:19.874Z,69.50
2023-02-23T05:52:21.666Z,69.62
2023-02-23T05:53:23.564Z,69.86
2023-02-23T05:54:25.276Z,69.86
2023-02-23T05:55:27.174Z,69.62
2023-02-23T05:56:28.779Z,69.62
2023-02-23T05:57:30.416Z,69.45
2023-02-23T05:58:32.036Z,69.65
2023-02-23T05:59:33.799Z,69.74
2023-02-23T06:00:35.412Z,69.82
2023-02-23T06:01:37.009Z,69.56
2023-02-23T06:02:38.871Z,69.50
2023-02-23T06:03:40.601Z,69.20
2023-02-23T06:04:42.283Z,68.95
2023-02-23T06:05:49.193Z,68.84
2023-02-23T06:06:50.871Z,69.04
2023-02-23T06:07:52.473Z,69.09
2023-02-23T06:08:54.149Z,69.18
2023-02-23T06:09:55.801Z,68.98
2023-02-23T06:10:57.398Z,69.17
2023-02-23T06:12:00.873Z,69.29
2023-02-23T06:13:04.024Z,69.25
2023-02-23T06:14:05.767Z,68.94
2023-02-23T06:15:07.802Z,69.06
2023-02-23T06:16:09.534Z,68.93
2023-02-23T06:17:11.239Z,68.57
2023-02-23T06:18:12.888Z,68.76
2023-02-23T06:19:14.693Z,68.58
2023-02-23T06:20:16.381Z,68.62
2023-02-23T06:21:18.205Z,68.11
2023-02-23T06:22:20.252Z,68.31
2023-02-23T06:23:21.992Z,68.50
2023-02-23T06:24:24.336Z,68.05
2023-02-23T06:25:25.991Z,68.28
2023-02-23T06:26:27.699Z,68.19
2023-02-23T06:27:29.312Z,68.25
2023-02-23T06:28:30.988Z,68.28
2023-02-23T06:29:32.656Z,67.96
2023-02-23T06:30:34.565Z,68.14
2023-02-23T06:31:36.270Z,67.94
2023-02-23T06:32:38.253Z,67.90
2023-02-23T06:33:39.872Z,67.82
2023-02-23T06:34:41.507Z,67.99
2023-02-23T06:35:43.099Z,68.46
2023-02-23T06:36:45.026Z,67.90
2023-02-23T06:37:46.653Z,67.93
2023-02-23T06:38:48.444Z,67.95
2023-02-23T06:39:50.627Z,67.61
2023-02-23T06:40:52.238Z,67.72
2023-02-23T06:41:53.838Z,67.97
2023-02-23T06:42:55.497Z,67.63
2023-02-23T06:43:57.160Z,67.86
2023-02-23T06:44:58.778Z,67.47
2023-02-23T06:46:00.532Z,67.34
2023-02-23T06:47:05.721Z,67.63
2023-02-23T06:48:07.790Z,67.54
2023-02-23T06:49:11.662Z,67.64
2023-02-23T06:50:13.516Z,67.88
2023-02-23T06:51:15.178Z,67.03
2023-02-23T06:52:16.878Z,67.14
2023-02-23T06:53:18.510Z,68.31
2023-02-23T06:54:20.203Z,67.73
2023-02-23T06:55:21.798Z,68.01
2023-02-23T06:56:23.470Z,68.01
2023-02-23T06:57:25.100Z,67.55
2023-02-23T06:58:26.697Z,67.20
2023-02-23T06:59:28.340Z,67.09
2023-02-23T07:00:30.709Z,67.56
2023-02-23T07:01:32.370Z,67.09
2023-02-23T07:02:35.660Z,67.53
2023-02-23T07:03:37.325Z,66.98
2023-02-23T07:04:38.959Z,66.97
2023-02-23T07:05:50.383Z,67.30
2023-02-23T07:06:52.399Z,67.13
2023-02-23T07:07:54.019Z,66.87
2023-02-23T07:08:58.213Z,66.91
2023-02-23T07:09:59.902Z,66.97
2023-02-23T07:11:11.555Z,67.02
2023-02-23T07:12:13.152Z,66.84
2023-02-23T07:13:14.858Z,66.47
2023-02-23T07:14:26.123Z,66.19
2023-02-23T07:15:28.341Z,66.36
2023-02-23T07:16:30.004Z,66.35
2023-02-23T07:17:31.701Z,66.12
2023-02-23T07:18:33.353Z,66.62
2023-02-23T07:19:35.106Z,66.48
2023-02-23T07:20:36.792Z,66.55
2023-02-23T07:21:38.475Z,66.06
2023-02-23T07:22:40.177Z,66.12
2023-02-23T07:23:41.820Z,65.95
2023-02-23T07:24:43.417Z,66.08
2023-02-23T07:25:45.452Z,66.31
2023-02-23T07:26:47.422Z,66.76
2023-02-23T07:27:49.168Z,66.73
2023-02-23T07:28:52.711Z,66.62
2023-02-23T07:29:55.516Z,66.48
2023-02-23T07:30:58.043Z,66.27
2023-02-23T07:32:00.040Z,65.75
2023-02-23T07:33:01.734Z,65.71
2023-02-23T07:34:03.374Z,65.87
2023-02-23T07:35:06.260Z,65.47
2023-02-23T07:36:08.307Z,65.63
2023-02-23T07:37:09.904Z,65.60
2023-02-23T07:38:12.604Z,66.17
2023-02-23T07:39:14.296Z,65.89
2023-02-23T07:40:16.318Z,65.84
2023-02-23T07:41:18.409Z,65.76
2023-02-23T07:42:20.195Z,65.44
2023-02-23T07:43:22.734Z,64.90
2023-02-23T07:44:24.376Z,64.86
2023-02-23T07:45:26.031Z,65.12
2023-02-23T07:46:27.822Z,65.44
2023-02-23T07:47:31.249Z,64.39
2023-02-23T07:48:33.299Z,64.50
2023-02-23T07:49:34.935Z,64.77
2023-02-23T07:50:36.559Z,64.86
2023-02-23T07:51:40.244Z,65.38
2023-02-23T07:52:42.493Z,64.92
2023-02-23T07:53:44.475Z,65.03
2023-02-23T07:54:46.157Z,64.95
2023-02-23T07:55:55.953Z,64.49
2023-02-23T07:56:57.715Z,64.77
2023-02-23T07:57:59.431Z,64.69
2023-02-23T07:59:01.172Z,64.59
2023-02-23T08:00:02.894Z,64.72
2023-02-23T08:01:04.716Z,64.22
2023-02-23T08:02:07.122Z,64.16
2023-02-23T08:03:08.752Z,64.01
2023-02-23T08:04:10.625Z,64.45
2023-02-23T08:05:12.543Z,64.47
2023-02-23T08:06:15.435Z,64.31
2023-02-23T08:07:17.028Z,64.28
2023-02-23T08:08:18.647Z,63.99
2023-02-23T08:09:20.366Z,64.00
2023-02-23T08:10:22.479Z,63.77
2023-02-23T08:11:24.220Z,63.76
2023-02-23T08:12:25.939Z,64.07
2023-02-23T08:13:27.687Z,64.38
2023-02-23T08:14:29.310Z,64.07
2023-02-23T08:15:31.683Z,63.23
2023-02-23T08:16:33.601Z,62.98
2023-02-23T08:17:36.501Z,63.39
2023-02-23T08:18:38.431Z,63.13
2023-02-23T08:19:40.278Z,63.66
2023-02-23T08:20:41.999Z,63.54
2023-02-23T08:21:43.635Z,63.09
2023-02-23T08:22:49.845Z,63.78
2023-02-23T08:23:51.682Z,64.12
2023-02-23T08:24:53.405Z,64.25
2023-02-23T08:25:55.084Z,64.51
2023-02-23T08:26:59.498Z,64.13
2023-02-23T08:28:04.799Z,64.20
2023-02-23T08:29:06.650Z,64.46
2023-02-23T08:30:09.959Z,64.03
2023-02-23T08:31:13.079Z,63.91
2023-02-23T08:32:15.115Z,64.03
2023-02-23T08:33:16.802Z,64.32
2023-02-23T08:34:19.157Z,64.42
2023-02-23T08:35:20.845Z,64.94
2023-02-23T08:36:22.517Z,64.26
2023-02-23T08:37:24.733Z,64.16
2023-02-23T08:38:26.452Z,63.50
2023-02-23T08:39:28.054Z,63.80
2023-02-23T08:40:29.714Z,64.14
2023-02-23T08:41:32.339Z,63.41
2023-02-23T08:42:34.030Z,62.73
2023-02-23T08:43:35.694Z,62.91
2023-02-23T08:44:37.316Z,63.15
2023-02-23T08:45:39.675Z,63.34
2023-02-23T08:46:41.317Z,63.18
2023-02-23T08:47:42.967Z,63.35
2023-02-23T08:48:44.627Z,63.59
2023-02-23T08:49:46.212Z,63.21
2023-02-23T08:50:49.954Z,63.11
2023-02-23T08:51:51.908Z,63.83
2023-02-23T08:52:54.125Z,63.42
2023-02-23T08:53:57.285Z,62.96
2023-02-23T08:54:58.952Z,62.97
2023-02-23T08:56:02.228Z,63.05
2023-02-23T08:57:03.843Z,63.44
2023-02-23T08:58:07.867Z,63.47
2023-02-23T08:59:09.631Z,63.59
2023-02-23T09:00:14.344Z,63.99
2023-02-23T09:01:18.599Z,63.54
2023-02-23T09:02:21.208Z,63.88
2023-02-23T09:03:23.098Z,64.12
2023-02-23T09:04:24.726Z,63.51
2023-02-23T09:05:26.450Z,63.64
2023-02-23T09:06:28.273Z,62.51
2023-02-23T09:07:29.902Z,62.85
2023-02-23T09:08:31.549Z,63.26
2023-02-23T09:09:34.224Z,63.40
2023-02-23T09:10:35.899Z,63.27
2023-02-23T09:11:37.586Z,63.10
2023-02-23T09:12:39.219Z,62.88
2023-02-23T09:13:40.832Z,63.06
2023-02-23T09:14:42.438Z,63.25
2023-02-23T09:15:44.083Z,63.31
2023-02-23T09:16:46.227Z,62.81
2023-02-23T09:17:48.182Z,62.62
2023-02-23T09:18:49.834Z,62.52
2023-02-23T09:19:51.527Z,62.96
2023-02-23T09:20:53.137Z,63.07
2023-02-23T09:21:54.775Z,62.69
2023-02-23T09:22:56.506Z,63.19
2023-02-23T09:23:58.721Z,63.06
2023-02-23T09:25:00.348Z,62.96
2023-02-23T09:26:05.624Z,63.12
2023-02-23T09:27:07.489Z,63.61
2023-02-23T09:28:12.152Z,63.44
2023-02-23T09:29:13.882Z,63.49
2023-02-23T09:30:17.762Z,63.85
2023-02-23T09:31:21.473Z,64.36
2023-02-23T09:32:23.607Z,63.60
2023-02-23T09:33:26.400Z,63.07
2023-02-23T09:34:30.776Z,63.67
2023-02-23T09:35:32.403Z,63.76
2023-02-23T09:36:34.012Z,62.81
2023-02-23T09:37:35.680Z,62.87
2023-02-23T09:38:37.341Z,62.96
2023-02-23T09:39:39.337Z,63.34
2023-02-23T09:40:47.728Z,63.56
2023-02-23T09:42:16.784Z,63.01
2023-02-23T09:43:30.268Z,62.52
2023-02-23T09:45:13.437Z,62.29
2023-02-23T09:46:46.037Z,62.69
2023-02-23T09:48:07.967Z,62.73
2023-02-23T09:49:16.538Z,62.71
2023-02-23T09:50:22.742Z,63.09
2023-02-23T09:51:24.456Z,62.70
2023-02-23T09:52:28.645Z,62.96
2023-02-23T09:54:04.478Z,62.86
2023-02-23T09:55:06.542Z,62.13
2023-02-23T09:56:15.575Z,62.41
2023-02-23T09:57:19.628Z,63.11
2023-02-23T09:58:28.997Z,62.88
2023-02-23T09:59:31.349Z,62.67
2023-02-23T10:00:37.129Z,62.50
2023-02-23T10:01:56.667Z,62.38
2023-02-23T10:03:31.420Z,62.16
2023-02-23T10:04:57.165Z,61.93
2023-02-23T10:06:05.212Z,62.09
2023-02-23T10:07:21.203Z,62.38
2023-02-23T10:08:30.385Z,61.86
2023-02-23T10:09:38.062Z,62.50
2023-02-23T10:10:48.816Z,62.78
2023-02-23T10:11:56.432Z,61.94
2023-02-23T10:13:13.208Z,62.14
2023-02-23T10:14:14.782Z,61.84
2023-02-23T10:15:36.444Z,62.26
2023-02-23T10:17:07.078Z,62.54
2023-02-23T10:18:20.852Z,62.28
2023-02-23T10:19:31.935Z,62.73
2023-02-23T10:20:45.278Z,62.24
2023-02-23T10:21:51.786Z,62.75
2023-02-23T10:22:53.407Z,62.05
2023-02-23T10:23:59.121Z,61.41
2023-02-23T10:25:34.043Z,61.54
2023-02-23T10:27:08.198Z,61.84
2023-02-23T10:28:17.061Z,62.28
2023-02-23T10:29:43.056Z,62.28
2023-02-23T10:30:44.899Z,62.15
2023-02-23T10:31:47.508Z,61.69
2023-02-23T10:32:52.675Z,62.19
2023-02-23T10:33:56.062Z,62.26
2023-02-23T10:34:57.784Z,61.49
2023-02-23T10:36:13.244Z,61.74
2023-02-23T10:37:16.621Z,61.48
2023-02-23T10:38:19.174Z,61.07
2023-02-23T10:39:20.831Z,61.29
2023-02-23T10:40:24.573Z,61.35
2023-02-23T10:41:26.482Z,61.55
2023-02-23T10:42:31.989Z,61.72
2023-02-23T10:43:33.598Z,61.67
2023-02-23T10:44:35.403Z,61.95
2023-02-23T10:45:41.641Z,62.24
2023-02-23T10:46:43.300Z,61.67
2023-02-23T10:47:44.986Z,61.27
2023-02-23T10:48:46.693Z,61.58
2023-02-23T10:49:50.049Z,61.26
2023-02-23T10:50:54.263Z,61.80
2023-02-23T10:51:58.243Z,61.91
2023-02-23T10:53:26.641Z,61.70
2023-02-23T10:54:52.322Z,61.42
2023-02-23T10:56:06.395Z,61.32
2023-02-23T10:57:08.141Z,61.70
2023-02-23T10:58:19.459Z,61.64
2023-02-23T10:59:22.093Z,62.15
2023-02-23T11:00:32.757Z,62.02
2023-02-23T11:01:49.132Z,61.07
2023-02-23T11:02:58.428Z,60.86
2023-02-23T11:04:13.115Z,61.27
2023-02-23T11:05:46.199Z,61.36
2023-02-23T11:06:48.673Z,61.19
2023-02-23T11:07:50.267Z,61.02
2023-02-23T11:08:51.858Z,61.19
2023-02-23T11:09:53.483Z,61.03
2023-02-23T11:11:17.128Z,61.20
2023-02-23T11:12:39.696Z,61.00
2023-02-23T11:13:48.169Z,60.78
2023-02-23T11:14:50.725Z,61.05
2023-02-23T11:16:00.228Z,61.09
2023-02-23T11:17:01.898Z,61.18
2023-02-23T11:18:04.453Z,61.20
2023-02-23T11:19:24.232Z,61.47
2023-02-23T11:20:41.812Z,60.69
2023-02-23T11:21:50.478Z,60.34
2023-02-23T11:22:52.395Z,60.73
2023-02-23T11:23:56.053Z,60.54
2023-02-23T11:24:57.638Z,60.29
2023-02-23T11:26:01.060Z,60.67
2023-02-23T11:27:07.078Z,60.93
2023-02-23T11:28:25.029Z,61.66
2023-02-23T11:29:35.732Z,61.27
2023-02-23T11:30:38.087Z,60.64
2023-02-23T11:31:40.912Z,60.79
2023-02-23T11:32:43.347Z,60.81
2023-02-23T11:33:45.964Z,60.94
2023-02-23T11:34:49.364Z,61.14
2023-02-23T11:36:00.616Z,60.84
2023-02-23T11:37:05.433Z,59.72
2023-02-23T11:38:36.331Z,59.93
2023-02-23T11:39:38.700Z,59.71
2023-02-23T11:40:40.305Z,60.22
2023-02-23T11:41:42.026Z,60.69
2023-02-23T11:43:12.715Z,60.40
2023-02-23T11:44:22.139Z,60.76
2023-02-23T11:45:27.731Z,60.17
2023-02-23T11:46:30.141Z,60.01
2023-02-23T11:47:41.501Z,59.69
2023-02-23T11:48:55.176Z,59.75
2023-02-23T11:49:56.886Z,59.20
2023-02-23T11:50:58.570Z,59.55
2023-02-23T11:52:00.267Z,59.80
2023-02-23T11:53:04.846Z,59.71
2023-02-23T11:54:07.236Z,59.79
2023-02-23T11:55:09.076Z,60.00
2023-02-23T11:56:13.343Z,59.84
2023-02-23T11:57:34.150Z,60.17
2023-02-23T11:58:55.847Z,60.92
2023-02-23T11:59:58.257Z,60.33
2023-02-23T12:01:01.623Z,60.17
2023-02-23T12:02:25.094Z,59.61
2023-02-23T12:03:28.008Z,59.55
2023-02-23T12:04:31.183Z,60.00
2023-02-23T12:05:33.492Z,59.52
2023-02-23T12:06:39.652Z,60.92
2023-02-23T12:07:45.912Z,60.83
2023-02-23T12:08:48.807Z,59.81
2023-02-23T12:09:56.465Z,59.84
2023-02-23T12:10:59.127Z,59.55
2023-02-23T12:12:06.831Z,59.87
2023-02-23T12:13:58.735Z,60.06
2023-02-23T12:15:10.144Z,60.04
2023-02-23T12:16:25.188Z,59.91
2023-02-23T12:17:27.951Z,60.25
2023-02-23T12:18:46.872Z,60.59
2023-02-23T12:19:51.571Z,59.83
2023-02-23T12:20:54.440Z,59.93
2023-02-23T12:22:12.415Z,60.10
2023-02-23T12:23:17.439Z,60.08
2023-02-23T12:24:37.348Z,60.22
2023-02-23T12:25:43.004Z,60.13
2023-02-23T12:26:57.023Z,60.11
2023-02-23T12:28:18.901Z,60.30
2023-02-23T12:29:51.930Z,60.06
2023-02-23T12:31:02.702Z,60.39
2023-02-23T12:32:20.745Z,59.34
2023-02-23T12:33:34.005Z,59.12
2023-02-23T12:34:40.192Z,59.19
2023-02-23T12:35:50.951Z,58.93
2023-02-23T12:37:20.569Z,59.07
2023-02-23T12:38:27.844Z,58.63
2023-02-23T12:39:40.694Z,59.01
2023-02-23T12:40:42.381Z,58.99
2023-02-23T12:41:50.348Z,58.83
2023-02-23T12:43:13.707Z,59.03
2023-02-23T12:44:30.653Z,59.39
2023-02-23T12:45:55.789Z,59.40
2023-02-23T12:46:57.548Z,59.68
2023-02-23T12:48:20.705Z,58.93
2023-02-23T12:49:38.010Z,58.98
2023-02-23T12:50:43.477Z,58.60
2023-02-23T12:51:49.393Z,58.92
2023-02-23T12:52:54.503Z,58.58
2023-02-23T12:53:56.094Z,58.31
2023-02-23T12:54:57.770Z,58.31
2023-02-23T12:56:04.308Z,58.63
2023-02-23T12:57:14.842Z,59.13
2023-02-23T12:58:23.090Z,59.18
2023-02-23T13:00:05.120Z,59.17
2023-02-23T13:01:17.552Z,58.68
2023-02-23T13:02:24.201Z,58.64
2023-02-23T13:03:29.706Z,58.33
2023-02-23T13:04:54.701Z,58.46
2023-02-23T13:06:12.289Z,58.04
2023-02-23T13:07:21.070Z,57.98
2023-02-23T13:08:52.259Z,57.62
2023-02-23T13:10:18.089Z,57.98
2023-02-23T13:11:41.448Z,57.97
2023-02-23T13:13:07.049Z,57.56
2023-02-23T13:14:36.713Z,57.65
2023-02-23T13:15:45.506Z,57.02
2023-02-23T13:16:53.590Z,56.92
2023-02-23T13:18:02.791Z,57.92
2023-02-23T13:19:21.410Z,58.19
2023-02-23T13:20:27.700Z,57.62
2023-02-23T13:21:33.336Z,57.64
2023-02-23T13:22:37.715Z,57.88
2023-02-23T13:23:50.222Z,57.34
2023-02-23T13:24:51.842Z,57.29
2023-02-23T13:26:00.718Z,56.70
2023-02-23T13:27:04.966Z,57.47
2023-02-23T13:28:06.690Z,57.19
2023-02-23T13:29:31.824Z,56.72
2023-02-23T13:30:33.658Z,56.76
2023-02-23T13:31:36.463Z,56.80
2023-02-23T13:32:39.394Z,56.61
2023-02-23T13:33:44.397Z,56.82
2023-02-23T13:35:00.636Z,56.81
2023-02-23T13:36:03.322Z,56.70
2023-02-23T13:37:06.198Z,57.17
2023-02-23T13:38:15.099Z,57.20
2023-02-23T13:39:49.263Z,57.26
2023-02-23T13:40:54.779Z,57.53
2023-02-23T13:42:14.613Z,57.57
2023-02-23T13:43:23.293Z,57.80
2023-02-23T13:44:46.278Z,57.18
2023-02-23T13:46:18.274Z,57.52
2023-02-23T13:47:39.483Z,57.65
2023-02-23T13:48:56.859Z,57.51
2023-02-23T13:50:37.821Z,57.96
2023-02-23T13:51:42.694Z,57.39
2023-02-23T13:52:44.872Z,57.08
2023-02-23T13:53:59.928Z,57.01
2023-02-23T13:55:04.623Z,56.93
2023-02-23T13:56:19.909Z,57.95
2023-02-23T13:57:21.524Z,57.46
2023-02-23T13:58:27.395Z,56.79
2023-02-23T13:59:30.616Z,56.61
2023-02-23T14:00:33.648Z,56.97
2023-02-23T14:01:39.516Z,57.36
2023-02-23T14:02:41.408Z,57.97
2023-02-23T14:04:15.940Z,57.57
2023-02-23T14:05:19.218Z,56.72
2023-02-23T14:06:22.956Z,57.33
2023-02-23T14:07:30.967Z,56.89
2023-02-23T14:08:37.417Z,56.99
2023-02-23T14:09:55.910Z,56.54
2023-02-23T14:10:57.574Z,56.43
2023-02-23T14:12:06.128Z,57.35
2023-02-23T14:13:13.579Z,56.91
2023-02-23T14:14:31.738Z,56.86
2023-02-23T14:15:37.802Z,56.73
2023-02-23T14:16:39.521Z,57.39
2023-02-23T14:17:41.642Z,56.70
2023-02-23T14:19:34.459Z,57.27
2023-02-23T14:20:38.763Z,57.21
2023-02-23T14:21:46.739Z,57.11
2023-02-23T14:23:17.663Z,57.89
2023-02-23T14:24:23.494Z,57.73
2023-02-23T14:25:34.634Z,57.88
2023-02-23T14:26:38.254Z,56.97
2023-02-23T14:27:43.620Z,57.43
2023-02-23T14:29:08.691Z,57.22